createdAt,value
2023-01-05T00:00:56.819Z,97267.94
2023-01-05T00:01:58.706Z,97275.41
2023-01-05T00:03:00.490Z,97272.81
2023-01-05T00:04:02.569Z,97271.81
2023-01-05T00:05:04.433Z,97268.41
2023-01-05T00:06:08.028Z,97273.44
2023-01-05T00:07:09.809Z,97260.78
2023-01-05T00:08:11.956Z,97253.66
2023-01-05T00:09:15.764Z,97269.22
2023-01-05T00:10:35.893Z,97260.97
2023-01-05T00:11:55.954Z,97259.19
2023-01-05T00:13:16.254Z,97256.41
2023-01-05T00:14:37.971Z,97261.44
2023-01-05T00:15:58.216Z,97266.00
2023-01-05T00:17:18.415Z,97256.41
2023-01-05T00:18:38.408Z,97262.06
2023-01-05T00:19:58.543Z,97255.91
2023-01-05T00:21:21.218Z,97267.91
2023-01-05T00:22:33.072Z,97271.94
2023-01-05T00:23:34.915Z,97261.53
2023-01-05T00:24:36.690Z,97248.38
2023-01-05T00:25:39.890Z,97246.78
2023-01-05T00:26:41.723Z,97249.38
2023-01-05T00:27:45.031Z,97243.38
2023-01-05T00:28:46.814Z,97245.16
2023-01-05T00:29:48.618Z,97236.56
2023-01-05T00:30:50.487Z,97235.13
2023-01-05T00:31:52.353Z,97237.09
2023-01-05T00:32:54.625Z,97232.72
2023-01-05T00:33:56.362Z,97229.81
2023-01-05T00:34:58.825Z,97226.94
2023-01-05T00:36:00.708Z,97226.16
2023-01-05T00:37:02.471Z,97216.41
2023-01-05T00:38:04.509Z,97212.81
2023-01-05T00:39:06.388Z,97215.28
2023-01-05T00:40:10.303Z,97214.81
2023-01-05T00:41:12.173Z,97212.91
2023-01-05T00:42:14.032Z,97210.97
2023-01-05T00:43:15.939Z,97224.56
2023-01-05T00:44:17.759Z,97215.63
2023-01-05T00:45:19.719Z,97213.50
2023-01-05T00:46:21.623Z,97212.16
2023-01-05T00:47:23.660Z,97210.56
2023-01-05T00:48:25.473Z,97223.72
2023-01-05T00:49:27.268Z,97215.28
2023-01-05T00:50:29.093Z,97208.03
2023-01-05T00:51:30.891Z,97218.75
2023-01-05T00:52:32.750Z,97216.47
2023-01-05T00:53:34.573Z,97201.09
2023-01-05T00:54:36.519Z,97219.91
2023-01-05T00:55:38.297Z,97230.75
2023-01-05T00:56:40.134Z,97228.78
2023-01-05T00:57:42.035Z,97214.81
2023-01-05T00:58:43.866Z,97209.63
2023-01-05T00:59:45.730Z,97213.66
2023-01-05T01:00:47.896Z,97212.53
2023-01-05T01:01:51.142Z,97222.91
2023-01-05T01:02:53.555Z,97228.28
2023-01-05T01:03:56.272Z,97219.38
2023-01-05T01:04:58.117Z,97220.19
2023-01-05T01:05:59.987Z,97213.38
2023-01-05T01:07:02.976Z,97214.19
2023-01-05T01:08:04.941Z,97207.03
2023-01-05T01:09:06.874Z,97208.47
2023-01-05T01:10:09.121Z,97200.34
2023-01-05T01:11:11.557Z,97200.19
2023-01-05T01:12:13.406Z,97197.22
2023-01-05T01:13:15.149Z,97187.47
2023-01-05T01:14:17.077Z,97191.69
2023-01-05T01:15:18.896Z,97189.91
2023-01-05T01:16:20.857Z,97184.72
2023-01-05T01:17:22.700Z,97174.34
2023-01-05T01:18:24.657Z,97176.28
2023-01-05T01:19:27.088Z,97171.28
2023-01-05T01:20:28.896Z,97174.22
2023-01-05T01:21:30.722Z,97173.22
2023-01-05T01:22:32.527Z,97177.47
2023-01-05T01:23:34.553Z,97174.88
2023-01-05T01:24:36.464Z,97171.28
2023-01-05T01:25:39.200Z,97170.09
2023-01-05T01:26:41.054Z,97176.13
2023-01-05T01:27:42.857Z,97174.16
2023-01-05T01:28:46.776Z,97176.41
2023-01-05T01:29:48.923Z,97192.59
2023-01-05T01:30:51.355Z,97187.41
2023-01-05T01:31:53.701Z,97196.19
2023-01-05T01:32:55.523Z,97202.72
2023-01-05T01:33:57.427Z,97211.31
2023-01-05T01:34:59.379Z,97201.09
2023-01-05T01:36:04.428Z,97184.25
2023-01-05T01:37:06.211Z,97192.56
2023-01-05T01:38:08.129Z,97198.09
2023-01-05T01:39:10.418Z,97183.34
2023-01-05T01:40:13.526Z,97185.13
2023-01-05T01:41:15.340Z,97188.97
2023-01-05T01:42:17.366Z,97194.63
2023-01-05T01:43:20.529Z,97195.44
2023-01-05T01:44:41.054Z,97191.88
2023-01-05T01:45:43.642Z,97181.47
2023-01-05T01:46:45.590Z,97165.75
2023-01-05T01:47:55.586Z,97185.34
2023-01-05T01:49:08.660Z,97189.53
2023-01-05T01:50:19.419Z,97164.22
2023-01-05T01:51:25.239Z,97167.19
2023-01-05T01:52:28.282Z,97169.03
2023-01-05T01:53:32.308Z,97166.63
2023-01-05T01:54:34.090Z,97163.66
2023-01-05T01:55:36.573Z,97153.28
2023-01-05T01:56:40.840Z,97162.84
2023-01-05T01:57:43.528Z,97169.47
2023-01-05T01:58:45.606Z,97177.91
2023-01-05T01:59:47.504Z,97166.19
2023-01-05T02:00:49.373Z,97163.41
2023-01-05T02:01:53.006Z,97153.66
2023-01-05T02:02:55.942Z,97146.50
2023-01-05T02:03:58.299Z,97137.75
2023-01-05T02:05:04.810Z,97142.94
2023-01-05T02:06:07.405Z,97150.09
2023-01-05T02:07:11.050Z,97162.88
2023-01-05T02:08:13.950Z,97169.41
2023-01-05T02:09:15.929Z,97156.78
2023-01-05T02:10:19.416Z,97173.16
2023-01-05T02:11:21.230Z,97166.81
2023-01-05T02:12:32.189Z,97150.09
2023-01-05T02:13:52.314Z,97155.91
2023-01-05T02:15:06.004Z,97178.81
2023-01-05T02:16:29.538Z,97165.69
2023-01-05T02:17:50.094Z,97167.03
2023-01-05T02:18:51.868Z,97170.03
2023-01-05T02:19:53.619Z,97184.22
2023-01-05T02:20:55.358Z,97182.63
2023-01-05T02:22:05.937Z,97169.13
2023-01-05T02:23:26.582Z,97167.09
2023-01-05T02:24:46.964Z,97172.91
2023-01-05T02:26:07.126Z,97143.88
2023-01-05T02:27:15.083Z,97147.28
2023-01-05T02:28:31.368Z,97132.03
2023-01-05T02:29:50.916Z,97117.00
2023-01-05T02:31:01.489Z,97118.41
2023-01-05T02:32:32.736Z,97111.69
2023-01-05T02:33:56.247Z,97117.16
2023-01-05T02:35:04.125Z,97115.19
2023-01-05T02:36:11.920Z,97123.78
2023-01-05T02:37:43.252Z,97119.03
2023-01-05T02:39:17.682Z,97116.06
2023-01-05T02:40:22.562Z,97099.50
2023-01-05T02:41:37.989Z,97094.91
2023-01-05T02:42:42.244Z,97116.16
2023-01-05T02:43:45.190Z,97122.63
2023-01-05T02:44:47.128Z,97113.91
2023-01-05T02:45:49.683Z,97099.56
2023-01-05T02:47:01.641Z,97087.38
2023-01-05T02:48:05.060Z,97074.97
2023-01-05T02:49:07.569Z,97076.56
2023-01-05T02:50:13.688Z,97060.44
2023-01-05T02:51:19.811Z,97052.50
2023-01-05T02:52:22.313Z,97053.19
2023-01-05T02:53:27.098Z,97048.78
2023-01-05T02:54:38.843Z,97057.50
2023-01-05T02:55:49.820Z,97061.50
2023-01-05T02:56:56.172Z,97055.69
2023-01-05T02:58:04.333Z,97053.44
2023-01-05T02:59:06.121Z,97039.44
2023-01-05T03:00:09.666Z,97034.81
2023-01-05T03:01:23.919Z,97052.22
2023-01-05T03:02:29.280Z,97049.81
2023-01-05T03:03:43.201Z,97055.84
2023-01-05T03:04:48.039Z,97042.19
2023-01-05T03:06:13.177Z,97029.53
2023-01-05T03:07:18.090Z,97036.94
2023-01-05T03:08:30.578Z,97025.94
2023-01-05T03:09:39.170Z,97022.72
2023-01-05T03:11:10.179Z,97024.47
2023-01-05T03:12:45.873Z,97026.47
2023-01-05T03:13:50.110Z,97029.28
2023-01-05T03:14:57.997Z,97028.66
2023-01-05T03:16:02.558Z,97030.00
2023-01-05T03:17:07.705Z,97034.59
2023-01-05T03:18:14.278Z,97045.03
2023-01-05T03:19:36.427Z,97049.25
2023-01-05T03:20:41.483Z,97047.44
2023-01-05T03:22:01.672Z,97044.84
2023-01-05T03:23:24.395Z,97056.03
2023-01-05T03:24:44.656Z,97047.25
2023-01-05T03:26:06.322Z,97050.22
2023-01-05T03:27:26.367Z,97055.81
2023-01-05T03:28:49.123Z,97039.59
2023-01-05T03:30:10.404Z,97025.78
2023-01-05T03:31:36.590Z,97037.00
2023-01-05T03:33:02.474Z,97034.38
2023-01-05T03:34:44.864Z,97034.38
2023-01-05T03:35:48.783Z,97006.38
2023-01-05T03:36:53.375Z,97001.97
2023-01-05T03:38:01.507Z,97011.19
2023-01-05T03:39:04.584Z,96991.19
2023-01-05T03:40:09.327Z,96987.56
2023-01-05T03:41:13.820Z,96982.38
2023-01-05T03:42:16.509Z,96988.97
2023-01-05T03:43:18.747Z,96991.22
2023-01-05T03:44:21.071Z,96992.84
2023-01-05T03:45:23.941Z,96984.03
2023-01-05T03:46:25.939Z,96993.63
2023-01-05T03:47:27.767Z,96986.00
2023-01-05T03:48:29.844Z,96990.25
2023-01-05T03:49:31.755Z,96983.41
2023-01-05T03:50:34.154Z,96980.19
2023-01-05T03:51:41.516Z,96992.59
2023-01-05T03:52:43.995Z,96993.56
2023-01-05T03:53:45.922Z,96980.38
2023-01-05T03:54:47.650Z,96994.19
2023-01-05T03:55:49.472Z,96985.22
2023-01-05T03:56:51.218Z,96978.03
2023-01-05T03:57:53.189Z,96978.81
2023-01-05T03:58:55.012Z,96975.22
2023-01-05T03:59:56.825Z,96978.63
2023-01-05T04:00:58.618Z,96969.00
2023-01-05T04:02:00.536Z,96972.41
2023-01-05T04:03:02.677Z,96973.25
2023-01-05T04:04:04.734Z,96990.25
2023-01-05T04:05:06.862Z,96994.81
2023-01-05T04:06:08.871Z,96989.59
2023-01-05T04:07:10.682Z,96984.59
2023-01-05T04:08:12.437Z,96972.75
2023-01-05T04:09:14.513Z,96968.72
2023-01-05T04:10:16.438Z,96957.91
2023-01-05T04:11:19.322Z,96960.50
2023-01-05T04:12:21.306Z,96969.75
2023-01-05T04:13:23.281Z,96976.53
2023-01-05T04:14:25.186Z,96968.56
2023-01-05T04:15:27.037Z,96971.78
2023-01-05T04:16:29.041Z,96970.75
2023-01-05T04:17:31.041Z,96964.16
2023-01-05T04:18:32.859Z,96957.13
2023-01-05T04:19:34.735Z,96952.13
2023-01-05T04:20:36.539Z,96949.91
2023-01-05T04:21:38.537Z,96946.50
2023-01-05T04:22:40.455Z,96943.09
2023-01-05T04:23:42.235Z,96953.31
2023-01-05T04:24:44.159Z,96959.53
2023-01-05T04:25:47.153Z,96959.88
2023-01-05T04:26:48.902Z,96953.28
2023-01-05T04:27:50.725Z,96949.88
2023-01-05T04:28:52.615Z,96950.84
2023-01-05T04:29:54.471Z,96948.25
2023-01-05T04:30:56.835Z,96942.69
2023-01-05T04:31:58.663Z,96949.09
2023-01-05T04:33:00.571Z,96953.31
2023-01-05T04:34:02.469Z,96948.31
2023-01-05T04:35:11.007Z,96944.88
2023-01-05T04:36:13.467Z,96929.47
2023-01-05T04:37:15.435Z,96916.66
2023-01-05T04:38:17.315Z,96913.25
2023-01-05T04:39:19.243Z,96905.81
2023-01-05T04:40:21.269Z,96919.00
2023-01-05T04:41:23.104Z,96907.81
2023-01-05T04:42:25.393Z,96927.81
2023-01-05T04:43:27.202Z,96939.81
2023-01-05T04:44:29.016Z,96944.66
2023-01-05T04:45:31.000Z,96940.25
2023-01-05T04:46:33.064Z,96944.66
2023-01-05T04:47:34.966Z,96948.06
2023-01-05T04:48:36.815Z,96937.47
2023-01-05T04:49:38.621Z,96942.69
2023-01-05T04:50:40.536Z,96947.69
2023-01-05T04:51:42.407Z,96951.09
2023-01-05T04:52:44.267Z,96948.50
2023-01-05T04:53:46.070Z,96950.09
2023-01-05T04:54:47.872Z,96936.09
2023-01-05T04:55:50.321Z,96942.88
2023-01-05T04:56:52.175Z,96945.31
2023-01-05T04:57:53.985Z,96926.47
2023-01-05T04:58:55.985Z,96921.47
2023-01-05T04:59:57.836Z,96932.09
2023-01-05T05:00:59.613Z,96945.88
2023-01-05T05:02:01.481Z,96935.47
2023-01-05T05:03:04.086Z,96937.06
2023-01-05T05:04:06.179Z,96931.06
2023-01-05T05:05:08.232Z,96943.47
2023-01-05T05:06:10.179Z,96951.69
2023-01-05T05:07:12.042Z,96960.66
2023-01-05T05:08:14.646Z,96946.84
2023-01-05T05:09:16.396Z,96936.06
2023-01-05T05:10:18.377Z,96947.88
2023-01-05T05:11:20.267Z,96952.28
2023-01-05T05:12:22.191Z,96952.66
2023-01-05T05:13:23.993Z,96954.81
2023-01-05T05:14:26.455Z,96954.44
2023-01-05T05:15:28.251Z,96955.59
2023-01-05T05:16:30.052Z,96943.78
2023-01-05T05:17:31.980Z,96951.56
2023-01-05T05:18:33.786Z,96961.72
2023-01-05T05:19:35.569Z,96966.53
2023-01-05T05:20:38.471Z,96965.31
2023-01-05T05:21:40.368Z,96959.09
2023-01-05T05:22:42.219Z,96959.69
2023-01-05T05:23:44.095Z,96954.91
2023-01-05T05:24:45.895Z,96968.66
2023-01-05T05:25:51.469Z,96971.63
2023-01-05T05:26:53.261Z,96969.00
2023-01-05T05:27:59.214Z,96962.00
2023-01-05T05:29:01.061Z,96956.00
2023-01-05T05:30:02.832Z,96949.22
2023-01-05T05:31:04.838Z,96953.97
2023-01-05T05:32:06.610Z,96957.16
2023-01-05T05:33:08.434Z,96963.16
2023-01-05T05:34:10.308Z,96964.75
2023-01-05T05:35:12.342Z,96962.75
2023-01-05T05:36:14.770Z,96951.38
2023-01-05T05:37:16.951Z,96955.34
2023-01-05T05:38:18.860Z,96963.16
2023-01-05T05:39:20.966Z,96968.19
2023-01-05T05:40:22.737Z,96969.94
2023-01-05T05:41:24.790Z,96977.75
2023-01-05T05:42:26.681Z,96980.34
2023-01-05T05:43:28.534Z,96979.38
2023-01-05T05:44:30.469Z,96983.38
2023-01-05T05:45:32.317Z,96986.59
2023-01-05T05:46:34.836Z,96982.81
2023-01-05T05:47:36.706Z,96977.44
2023-01-05T05:48:38.529Z,96981.66
2023-01-05T05:49:40.419Z,96984.25
2023-01-05T05:50:42.281Z,96980.47
2023-01-05T05:51:44.240Z,96996.69
2023-01-05T05:52:46.042Z,97001.72
2023-01-05T05:53:47.825Z,96967.91
2023-01-05T05:54:49.651Z,96971.31
2023-01-05T05:55:51.904Z,96990.31
2023-01-05T05:56:53.808Z,96980.69
2023-01-05T05:57:55.628Z,96982.50
2023-01-05T05:59:01.248Z,96978.09
2023-01-05T06:00:04.378Z,96978.09
2023-01-05T06:01:06.637Z,96990.91
2023-01-05T06:02:08.702Z,96982.13
2023-01-05T06:03:10.763Z,96989.72
2023-01-05T06:04:12.676Z,96982.94
2023-01-05T06:05:14.628Z,96977.91
2023-01-05T06:06:16.379Z,96988.50
2023-01-05T06:07:18.286Z,97002.69
2023-01-05T06:08:20.071Z,97006.31
2023-01-05T06:09:21.851Z,96991.50
2023-01-05T06:10:23.802Z,96980.09
2023-01-05T06:11:25.717Z,96978.50
2023-01-05T06:12:27.642Z,96982.06
2023-01-05T06:13:29.497Z,96981.28
2023-01-05T06:14:31.251Z,97000.09
2023-01-05T06:15:33.156Z,97006.31
2023-01-05T06:16:35.093Z,97010.44
2023-01-05T06:17:37.093Z,97019.44
2023-01-05T06:18:38.931Z,97012.78
2023-01-05T06:19:40.764Z,97022.41
2023-01-05T06:20:42.730Z,97025.81
2023-01-05T06:21:44.678Z,97027.03
2023-01-05T06:22:46.541Z,97019.06
2023-01-05T06:23:48.409Z,97004.47
2023-01-05T06:24:50.454Z,96999.59
2023-01-05T06:25:52.417Z,97002.78
2023-01-05T06:26:54.194Z,97017.19
2023-01-05T06:27:56.009Z,97009.41
2023-01-05T06:28:57.777Z,97004.38
2023-01-05T06:29:59.688Z,97009.78
2023-01-05T06:31:01.516Z,97007.97
2023-01-05T06:32:03.527Z,97012.00
2023-01-05T06:33:05.408Z,97010.81
2023-01-05T06:34:07.373Z,96995.81
2023-01-05T06:35:09.377Z,97009.66
2023-01-05T06:36:11.201Z,97038.63
2023-01-05T06:37:13.062Z,97035.41
2023-01-05T06:38:16.395Z,97030.38
2023-01-05T06:39:18.189Z,97028.78
2023-01-05T06:40:20.216Z,97018.81
2023-01-05T06:41:22.008Z,97030.81
2023-01-05T06:42:24.073Z,97032.44
2023-01-05T06:43:25.944Z,97042.66
2023-01-05T06:44:27.831Z,97033.69
2023-01-05T06:45:29.699Z,97048.09
2023-01-05T06:46:31.730Z,97041.72
2023-01-05T06:47:33.849Z,97038.31
2023-01-05T06:48:35.662Z,97033.91
2023-01-05T06:49:37.434Z,97050.53
2023-01-05T06:50:39.315Z,97058.50
2023-01-05T06:51:41.266Z,97057.31
2023-01-05T06:52:43.165Z,97027.72
2023-01-05T06:53:45.022Z,96992.91
2023-01-05T06:54:46.871Z,97003.50
2023-01-05T06:55:48.790Z,97020.28
2023-01-05T06:56:50.575Z,97009.09
2023-01-05T06:57:55.687Z,97008.91
2023-01-05T06:59:02.367Z,97000.72
2023-01-05T07:00:09.145Z,97001.16
2023-01-05T07:01:11.114Z,97002.19
2023-01-05T07:02:14.562Z,97006.03
2023-01-05T07:03:16.644Z,97029.06
2023-01-05T07:04:18.725Z,97014.91
2023-01-05T07:05:20.571Z,96994.69
2023-01-05T07:06:22.499Z,96968.44
2023-01-05T07:07:24.353Z,96979.47
2023-01-05T07:08:26.341Z,96953.31
2023-01-05T07:09:28.116Z,96964.56
2023-01-05T07:10:30.514Z,96993.25
2023-01-05T07:11:32.483Z,96996.56
2023-01-05T07:12:34.433Z,96978.59
2023-01-05T07:13:36.897Z,96985.03
2023-01-05T07:14:38.690Z,96999.44
2023-01-05T07:15:40.509Z,97001.88
2023-01-05T07:16:42.484Z,97001.69
2023-01-05T07:17:44.628Z,97012.91
2023-01-05T07:18:46.803Z,97013.69
2023-01-05T07:19:48.627Z,97014.31
2023-01-05T07:20:50.469Z,96979.47
2023-01-05T07:21:56.770Z,96976.84
2023-01-05T07:22:59.171Z,97019.94
2023-01-05T07:24:01.027Z,97006.72
2023-01-05T07:25:02.872Z,97011.94
2023-01-05T07:26:08.966Z,97012.94
2023-01-05T07:27:10.883Z,97029.56
2023-01-05T07:28:12.821Z,97028.75
2023-01-05T07:29:14.716Z,97023.34
2023-01-05T07:30:16.575Z,97018.94
2023-01-05T07:31:18.467Z,96999.09
2023-01-05T07:32:20.527Z,96999.91
2023-01-05T07:33:22.302Z,97007.53
2023-01-05T07:34:24.298Z,97010.75
2023-01-05T07:35:26.244Z,97005.13
2023-01-05T07:36:28.135Z,96971.88
2023-01-05T07:37:30.004Z,96983.50
2023-01-05T07:38:32.414Z,96998.59
2023-01-05T07:39:34.453Z,96999.63
2023-01-05T07:40:37.072Z,97013.47
2023-01-05T07:41:38.965Z,97013.47
2023-01-05T07:42:41.239Z,97016.09
2023-01-05T07:43:43.053Z,97020.31
2023-01-05T07:44:45.896Z,97028.13
2023-01-05T07:45:48.864Z,97028.13
2023-01-05T07:46:50.868Z,97054.19
2023-01-05T07:47:52.781Z,97060.81
2023-01-05T07:48:54.653Z,97070.25
2023-01-05T07:49:56.515Z,97060.63
2023-01-05T07:51:05.199Z,97059.84
2023-01-05T07:52:07.075Z,97055.59
2023-01-05T07:53:08.868Z,97073.84
2023-01-05T07:54:10.632Z,97061.63
2023-01-05T07:55:12.471Z,97042.56
2023-01-05T07:56:14.629Z,97042.56
2023-01-05T07:57:16.480Z,97037.97
2023-01-05T07:58:18.323Z,97054.22
2023-01-05T07:59:20.091Z,97057.44
2023-01-05T08:00:22.086Z,97055.84
2023-01-05T08:01:24.045Z,97049.63
2023-01-05T08:02:32.371Z,97068.66
2023-01-05T08:03:36.017Z,97062.66
2023-01-05T08:04:37.985Z,97043.59
2023-01-05T08:05:39.902Z,97046.22
2023-01-05T08:06:41.728Z,97050.41
2023-01-05T08:07:43.539Z,97072.91
2023-01-05T08:08:45.651Z,97071.88
2023-01-05T08:10:06.163Z,97094.00
2023-01-05T08:11:09.096Z,97083.16
2023-01-05T08:12:10.828Z,97047.25
2023-01-05T08:13:31.228Z,97052.47
2023-01-05T08:14:33.216Z,97043.09
2023-01-05T08:15:35.074Z,97073.19
2023-01-05T08:16:36.872Z,97059.97
2023-01-05T08:17:41.354Z,97039.69
2023-01-05T08:18:43.161Z,97015.22
2023-01-05T08:19:44.991Z,97022.66
2023-01-05T08:20:52.746Z,97056.56
2023-01-05T08:21:54.593Z,97035.50
2023-01-05T08:22:56.359Z,97039.94
2023-01-05T08:24:00.013Z,97027.25
2023-01-05T08:25:01.847Z,97035.09
2023-01-05T08:26:05.935Z,97041.09
2023-01-05T08:27:08.110Z,97043.53
2023-01-05T08:28:09.939Z,97045.16
2023-01-05T08:29:11.692Z,97057.59
2023-01-05T08:30:14.253Z,97070.44
2023-01-05T08:31:18.194Z,97081.69
2023-01-05T08:32:20.234Z,97081.88
2023-01-05T08:33:22.028Z,97073.84
2023-01-05T08:34:23.825Z,97072.44
2023-01-05T08:35:25.622Z,97063.00
2023-01-05T08:36:27.437Z,97071.03
2023-01-05T08:37:29.382Z,97067.63
2023-01-05T08:38:31.213Z,97064.41
2023-01-05T08:39:33.028Z,97076.63
2023-01-05T08:40:35.429Z,97072.22
2023-01-05T08:41:38.349Z,97083.44
2023-01-05T08:42:41.127Z,97070.22
2023-01-05T08:43:43.051Z,97065.19
2023-01-05T08:44:44.891Z,97075.03
2023-01-05T08:45:50.525Z,97075.03
2023-01-05T08:46:52.482Z,97074.84
2023-01-05T08:47:54.361Z,97056.16
2023-01-05T08:48:57.391Z,97047.34
2023-01-05T08:49:59.200Z,97043.09
2023-01-05T08:51:03.903Z,97050.56
2023-01-05T08:52:05.749Z,97076.25
2023-01-05T08:53:07.619Z,97090.53
2023-01-05T08:54:09.451Z,97085.91
2023-01-05T08:55:11.294Z,97083.31
2023-01-05T08:56:13.167Z,97092.53
2023-01-05T08:57:15.114Z,97114.81
2023-01-05T08:58:17.027Z,97113.81
2023-01-05T08:59:19.084Z,97074.28
2023-01-05T09:00:22.398Z,97063.66
2023-01-05T09:01:24.348Z,97057.81
2023-01-05T09:02:26.731Z,97082.53
2023-01-05T09:03:28.708Z,97093.97
2023-01-05T09:04:30.557Z,97092.16
2023-01-05T09:05:32.424Z,97057.03
2023-01-05T09:06:34.584Z,97063.25
2023-01-05T09:07:36.393Z,97082.53
2023-01-05T09:08:39.382Z,97084.16
2023-01-05T09:09:41.217Z,97082.13
2023-01-05T09:10:43.041Z,97075.31
2023-01-05T09:11:44.812Z,97068.09
2023-01-05T09:12:46.606Z,97064.69
2023-01-05T09:13:49.939Z,97078.53
2023-01-05T09:14:51.786Z,97067.31
2023-01-05T09:15:53.595Z,97070.72
2023-01-05T09:17:07.129Z,97064.47
2023-01-05T09:18:09.837Z,97055.66
2023-01-05T09:19:11.996Z,97057.25
2023-01-05T09:20:13.769Z,97071.31
2023-01-05T09:21:15.559Z,97080.13
2023-01-05T09:22:17.555Z,97088.56
2023-01-05T09:23:19.364Z,97090.19
2023-01-05T09:24:21.216Z,97090.38
2023-01-05T09:25:23.097Z,97079.94
2023-01-05T09:26:24.903Z,97051.63
2023-01-05T09:27:26.719Z,97051.41
2023-01-05T09:28:28.518Z,97069.31
2023-01-05T09:29:30.334Z,97068.09
2023-01-05T09:30:37.983Z,97059.84
2023-01-05T09:31:44.272Z,97087.41
2023-01-05T09:32:46.106Z,97082.78
2023-01-05T09:33:48.109Z,97065.09
2023-01-05T09:34:50.124Z,97054.03
2023-01-05T09:35:57.323Z,97070.13
2023-01-05T09:36:59.206Z,97088.59
2023-01-05T09:38:01.001Z,97083.16
2023-01-05T09:39:04.724Z,97065.06
2023-01-05T09:40:06.881Z,97055.41
2023-01-05T09:41:08.706Z,97051.03
2023-01-05T09:42:14.011Z,97058.03
2023-01-05T09:43:24.962Z,97071.69
2023-01-05T09:44:29.928Z,97076.91
2023-01-05T09:45:31.709Z,97081.34
2023-01-05T09:46:39.598Z,97072.53
2023-01-05T09:47:46.971Z,97061.84
2023-01-05T09:48:52.664Z,97043.56
2023-01-05T09:49:55.038Z,97068.69
2023-01-05T09:50:56.965Z,97076.53
2023-01-05T09:52:01.107Z,97073.72
2023-01-05T09:53:03.569Z,97073.50
2023-01-05T09:54:05.381Z,97065.66
2023-01-05T09:55:13.314Z,97057.03
2023-01-05T09:58:01.070Z,97078.13
2023-01-05T09:59:08.299Z,97075.31
2023-01-05T10:00:15.253Z,97074.50
2023-01-05T10:01:17.936Z,97058.44
2023-01-05T10:02:22.911Z,97047.97
2023-01-05T10:04:01.797Z,97027.06
2023-01-05T10:04:48.140Z,97047.97
2023-01-05T10:05:50.665Z,97042.31
2023-01-05T10:07:07.415Z,97040.31
2023-01-05T10:08:16.949Z,97031.47
2023-01-05T10:09:20.987Z,97041.94
2023-01-05T10:10:41.637Z,97060.22
2023-01-05T10:12:20.881Z,97054.81
2023-01-05T10:13:26.748Z,97057.19
2023-01-05T10:14:38.362Z,97053.59
2023-01-05T10:15:40.201Z,97063.00
2023-01-05T10:16:44.334Z,97056.19
2023-01-05T10:17:47.049Z,97047.34
2023-01-05T10:18:49.039Z,97046.34
2023-01-05T10:19:51.412Z,97047.94
2023-01-05T10:21:05.773Z,97050.78
2023-01-05T10:22:16.431Z,97054.38
2023-01-05T10:23:21.787Z,97047.34
2023-01-05T10:24:29.919Z,97039.50
2023-01-05T10:26:01.033Z,97028.44
2023-01-05T10:27:24.826Z,97065.03
2023-01-05T10:29:03.164Z,97044.13
2023-01-05T10:30:14.004Z,97025.63
2023-01-05T10:31:15.852Z,97053.16
2023-01-05T10:32:20.386Z,97081.72
2023-01-05T10:33:28.167Z,97057.41
2023-01-05T10:34:43.009Z,97004.53
2023-01-05T10:36:00.553Z,97001.91
2023-01-05T10:37:21.522Z,97028.63
2023-01-05T10:38:23.718Z,97039.09
2023-01-05T10:39:28.135Z,97042.31
2023-01-05T10:40:36.079Z,97036.06
2023-01-05T10:41:53.205Z,97045.53
2023-01-05T10:43:04.272Z,97038.66
2023-01-05T10:44:26.254Z,97002.06
2023-01-05T10:45:30.261Z,97024.59
2023-01-05T10:46:39.952Z,97029.41
2023-01-05T10:47:45.512Z,97031.63
2023-01-05T10:48:48.163Z,97038.69
2023-01-05T10:49:50.259Z,97025.81
2023-01-05T10:50:53.324Z,97026.00
2023-01-05T10:51:58.442Z,97040.09
2023-01-05T10:53:01.977Z,97037.47
2023-01-05T10:54:05.107Z,97020.19
2023-01-05T10:55:13.482Z,97015.97
2023-01-05T10:56:16.819Z,97010.94
2023-01-05T10:57:35.371Z,97025.00
2023-01-05T10:58:39.101Z,97039.09
2023-01-05T10:59:59.932Z,97022.63
2023-01-05T11:01:04.289Z,97021.78
2023-01-05T11:02:12.470Z,97024.22
2023-01-05T11:03:17.325Z,97040.69
2023-01-05T11:04:36.436Z,97039.09
2023-01-05T11:05:42.023Z,97027.03
2023-01-05T11:06:43.871Z,97023.41
2023-01-05T11:07:53.274Z,97045.13
2023-01-05T11:08:55.328Z,97009.91
2023-01-05T11:09:57.331Z,97010.50
2023-01-05T11:11:01.091Z,96992.44
2023-01-05T11:12:03.578Z,97021.19
2023-01-05T11:13:19.142Z,97028.22
2023-01-05T11:14:21.317Z,97057.78
2023-01-05T11:15:23.388Z,97065.63
2023-01-05T11:16:34.894Z,97035.66
2023-01-05T11:17:38.528Z,97003.28
2023-01-05T11:18:59.225Z,97008.50
2023-01-05T11:20:01.439Z,96995.81
2023-01-05T11:21:11.087Z,96992.38
2023-01-05T11:22:28.025Z,97022.97
2023-01-05T11:23:38.270Z,97009.28
2023-01-05T11:24:40.721Z,97016.94
2023-01-05T11:25:42.666Z,97028.22
2023-01-05T11:26:48.933Z,97039.47
2023-01-05T11:28:05.986Z,97041.28
2023-01-05T11:29:13.567Z,97029.63
2023-01-05T11:30:15.390Z,97024.22
2023-01-05T11:31:17.434Z,97038.31
2023-01-05T11:32:19.306Z,97047.94
2023-01-05T11:33:26.116Z,97055.56
2023-01-05T11:34:34.326Z,97049.56
2023-01-05T11:35:38.440Z,97044.31
2023-01-05T11:36:40.723Z,97035.88
2023-01-05T11:37:44.587Z,97041.50
2023-01-05T11:38:51.739Z,97051.59
2023-01-05T11:39:55.478Z,97059.81
2023-01-05T11:40:58.358Z,97040.53
2023-01-05T11:42:11.654Z,97045.97
2023-01-05T11:43:13.722Z,97039.94
2023-01-05T11:44:21.623Z,97041.56
2023-01-05T11:45:25.365Z,97041.56
2023-01-05T11:46:40.516Z,97052.41
2023-01-05T11:47:47.400Z,97082.56
2023-01-05T11:48:54.228Z,97093.44
2023-01-05T11:50:08.729Z,97066.06
2023-01-05T11:51:31.373Z,97066.09
2023-01-05T11:52:36.201Z,97089.19
2023-01-05T11:53:39.757Z,97116.28
2023-01-05T11:54:41.595Z,97121.06
2023-01-05T11:55:43.393Z,97110.19
2023-01-05T11:56:45.261Z,97117.41
2023-01-05T11:57:48.030Z,97110.56
2023-01-05T11:58:50.968Z,97118.16
2023-01-05T11:59:54.475Z,97126.16
2023-01-05T12:01:14.532Z,97111.66
2023-01-05T12:02:28.529Z,97141.72
2023-01-05T12:03:42.562Z,97167.19
2023-01-05T12:04:55.298Z,97156.13
2023-01-05T12:05:58.736Z,97170.97
2023-01-05T12:07:09.543Z,97136.25
2023-01-05T12:08:15.834Z,97132.44
2023-01-05T12:09:32.654Z,97138.41
2023-01-05T12:10:55.741Z,97147.00
2023-01-05T12:12:04.635Z,97160.44
2023-01-05T12:13:12.819Z,97168.03
2023-01-05T12:14:14.603Z,97172.09
2023-01-05T12:15:34.265Z,97157.44
2023-01-05T12:16:45.703Z,97180.28
2023-01-05T12:17:53.314Z,97159.63
2023-01-05T12:19:24.576Z,97172.09
2023-01-05T12:20:44.863Z,97182.53
2023-01-05T12:21:58.976Z,97196.53
2023-01-05T12:23:22.593Z,97186.13
2023-01-05T12:24:32.235Z,97189.13
2023-01-05T12:25:33.975Z,97167.03
2023-01-05T12:26:43.696Z,97163.81
2023-01-05T12:27:54.340Z,97167.22
2023-01-05T12:34:08.493Z,97189.94
2023-01-05T12:35:17.826Z,97160.66
2023-01-05T12:36:27.052Z,97155.47
2023-01-05T12:37:28.793Z,97176.44
2023-01-05T12:38:49.415Z,97182.47
2023-01-05T12:39:51.218Z,97186.69
2023-01-05T12:41:08.412Z,97181.28
2023-01-05T12:42:22.282Z,97200.50
2023-01-05T12:43:42.911Z,97183.28
2023-01-05T12:45:03.253Z,97199.09
2023-01-05T12:46:25.680Z,97197.13
2023-01-05T12:47:37.298Z,97192.09
2023-01-05T12:48:42.297Z,97194.88
2023-01-05T12:49:50.261Z,97190.22
2023-01-05T12:51:18.300Z,97186.22
2023-01-05T12:52:33.153Z,97193.41
2023-01-05T12:53:40.689Z,97217.22
2023-01-05T12:54:46.681Z,97211.38